Time;durP1;ratioP1;P1;durP2;ratioP2;P2;SDS_P1;SDS_P2;PMS_P1;PMS_P2;Temp;Humidity;BMP_temperature;BMP_pressure;BME280_temperature;BME280_humidity;BME280_pressure;Samples;Min_cycle;Max_cycle;Signal;HPM_P1;HPM_P2
2024/01/05 00:02:54;;;;;;;12.10;3.10;;;;;;;-0.82;100.00;99723.02;213824;1292;140424;-90
2024/01/05 00:07:56;;;;;;;8.70;3.40;;;;;;;-0.87;100.00;99716.80;215284;1290;139073;-90
2024/01/05 00:13:08;;;;;;;8.10;2.90;;;;;;;-0.91;100.00;99719.94;214819;1290;140543;-90
2024/01/05 00:18:10;;;;;;;5.90;2.80;;;;;;;-0.91;100.00;99717.60;215097;1289;97860;-91
2024/01/05 00:23:10;;;;;;;9.00;2.90;;;;;;;-0.92;100.00;99718.71;213721;1292;140255;-92
2024/01/05 00:28:11;;;;;;;9.80;3.20;;;;;;;-0.94;100.00;99714.00;215009;1287;139067;-90
2024/01/05 00:33:11;;;;;;;10.20;3.50;;;;;;;-0.95;100.00;99710.15;215342;1289;141035;-90
2024/01/05 00:38:12;;;;;;;9.50;3.60;;;;;;;-0.96;100.00;99720.54;215311;1289;139075;-91
2024/01/05 00:43:12;;;;;;;9.90;3.70;;;;;;;-0.97;100.00;99727.32;214674;1289;140375;-90
2024/01/05 00:48:13;;;;;;;8.30;3.30;;;;;;;-0.97;100.00;99734.36;216634;1287;97846;-90
2024/01/05 00:53:13;;;;;;;8.30;3.30;;;;;;;-1.00;100.00;99744.12;214598;1289;139537;-91
2024/01/05 00:58:14;;;;;;;9.20;3.80;;;;;;;-1.02;100.00;99743.48;215797;1290;138746;-90
2024/01/05 01:03:14;;;;;;;10.90;4.10;;;;;;;-1.02;100.00;99747.10;215556;1287;140139;-89
2024/01/05 01:08:14;;;;;;;9.90;3.70;;;;;;;-1.05;100.00;99744.00;216819;1288;140267;-90
2024/01/05 01:13:15;;;;;;;12.60;3.30;;;;;;;-1.06;100.00;99758.67;217609;1288;140170;-90
2024/01/05 01:18:15;;;;;;;9.10;2.90;;;;;;;-1.06;100.00;99765.69;217110;1287;97837;-91
2024/01/05 01:23:16;;;;;;;16.30;5.20;;;;;;;-1.05;100.00;99766.73;214229;1291;139646;-90
2024/01/05 01:28:18;;;;;;;18.40;6.70;;;;;;;-1.05;100.00;99767.05;215091;1290;138929;-90
2024/01/05 01:33:19;;;;;;;15.80;4.60;;;;;;;-1.03;100.00;99775.86;214224;1288;139313;-91
2024/01/05 01:38:22;;;;;;;11.50;3.80;;;;;;;-1.01;100.00;99776.50;214520;1287;138896;-91
2024/01/05 01:43:26;;;;;;;9.50;3.60;;;;;;;-1.00;100.00;99776.21;213461;1289;140248;-90
2024/01/05 01:48:27;;;;;;;10.90;3.80;;;;;;;-0.98;100.00;99772.67;214245;1290;99256;-90
2024/01/05 01:53:28;;;;;;;17.70;4.10;;;;;;;-0.94;100.00;99774.65;213730;1288;140038;-90
2024/01/05 01:58:28;;;;;;;9.90;4.10;;;;;;;-0.92;100.00;99773.35;214215;1288;139351;-90
2024/01/05 02:03:29;;;;;;;9.70;4.00;;;;;;;-0.88;100.00;99775.01;215609;1287;139114;-90
2024/01/05 02:08:30;;;;;;;10.20;4.30;;;;;;;-0.84;100.00;99772.84;214223;1291;138730;-90
2024/01/05 02:13:32;;;;;;;8.50;3.60;;;;;;;-0.82;100.00;99772.98;214460;1288;140091;-90
2024/01/05 02:18:33;;;;;;;10.00;3.50;;;;;;;-0.79;100.00;99769.70;215430;1290;97937;-90
2024/01/05 02:23:34;;;;;;;16.20;3.80;;;;;;;-0.75;100.00;99775.95;214729;1290;139612;-91
2024/01/05 02:28:37;;;;;;;12.10;4.60;;;;;;;-0.72;100.00;99777.58;215075;1290;139011;-91
2024/01/05 02:33:38;;;;;;;12.80;4.50;;;;;;;-0.70;100.00;99779.06;214655;1287;139970;-92
2024/01/05 02:38:38;;;;;;;11.10;3.60;;;;;;;-0.67;100.00;99785.58;215190;1287;138891;-91
2024/01/05 02:43:39;;;;;;;10.20;3.80;;;;;;;-0.65;100.00;99787.24;214679;1290;141080;-92
2024/01/05 02:48:40;;;;;;;12.20;4.00;;;;;;;-0.61;100.00;99789.72;215770;1287;96748;-90
2024/01/05 02:53:40;;;;;;;9.40;3.60;;;;;;;-0.60;100.00;99806.09;217721;1287;139674;-91
2024/01/05 02:58:41;;;;;;;9.30;3.90;;;;;;;-0.60;100.00;99806.77;217932;1290;138484;-91
2024/01/05 03:03:45;;;;;;;9.30;3.60;;;;;;;-0.56;100.00;99804.94;214434;1290;139613;-90
2024/01/05 03:08:46;;;;;;;9.40;4.00;;;;;;;-0.52;100.00;99801.00;214803;1290;138843;-90
2024/01/05 03:13:46;;;;;;;10.90;4.00;;;;;;;-0.48;100.00;99796.86;214347;1287;139873;-91
2024/01/05 03:18:46;;;;;;;10.30;3.70;;;;;;;-0.47;100.00;99795.84;215911;1288;97979;-90
2024/01/05 03:23:47;;;;;;;11.00;4.00;;;;;;;-0.44;100.00;99795.20;214392;1287;140169;-90
2024/01/05 03:28:48;;;;;;;12.20;4.90;;;;;;;-0.43;100.00;99793.27;214913;1288;139326;-90
2024/01/05 03:33:50;;;;;;;10.20;4.40;;;;;;;-0.42;100.00;99797.46;214067;1288;139768;-91
2024/01/05 03:38:50;;;;;;;10.30;3.60;;;;;;;-0.40;100.00;99794.54;214162;1287;138956;-92
2024/01/05 03:43:51;;;;;;;7.70;3.30;;;;;;;-0.38;100.00;99786.81;213577;1287;139823;-92
2024/01/05 03:48:51;;;;;;;8.20;2.90;;;;;;;-0.35;100.00;99780.63;214396;1287;111139;-91
2024/01/05 03:53:52;;;;;;;10.80;4.00;;;;;;;-0.33;100.00;99774.30;214456;1288;140564;-91
2024/01/05 03:58:52;;;;;;;10.70;3.30;;;;;;;-0.30;100.00;99773.19;215310;1287;139370;-91
2024/01/05 04:03:53;;;;;;;9.90;3.70;;;;;;;-0.29;100.00;99771.23;214495;1286;139951;-91
2024/01/05 04:08:53;;;;;;;10.10;3.70;;;;;;;-0.26;100.00;99769.50;215270;1288;139587;-91
2024/01/05 04:13:54;;;;;;;11.60;4.10;;;;;;;-0.22;100.00;99774.14;214679;1288;139960;-91
2024/01/05 04:18:54;;;;;;;7.90;3.30;;;;;;;-0.22;100.00;99774.27;215430;1287;97951;-92
2024/01/05 04:23:57;;;;;;;8.80;3.20;;;;;;;-0.20;100.00;99774.64;214810;1288;139413;-92
2024/01/05 04:28:57;;;;;;;12.50;3.30;;;;;;;-0.18;100.00;99770.16;215443;1287;139116;-92
2024/01/05 04:33:58;;;;;;;11.80;3.90;;;;;;;-0.17;100.00;99772.67;217506;1287;139738;-92
2024/01/05 04:38:59;;;;;;;8.00;3.10;;;;;;;-0.14;100.00;99785.88;218153;1287;139027;-90
2024/01/05 04:43:59;;;;;;;10.00;3.30;;;;;;;-0.13;100.00;99791.40;214834;1290;140106;-90
2024/01/05 04:48:59;;;;;;;8.20;3.00;;;;;;;-0.12;100.00;99788.22;214322;1290;139019;-91
2024/01/05 04:54:00;;;;;;;8.00;3.50;;;;;;;-0.09;100.00;99789.27;214054;1290;139836;-90
2024/01/05 04:59:00;;;;;;;11.60;3.20;;;;;;;-0.09;100.00;99793.81;214345;1288;138654;-91
2024/01/05 05:04:01;;;;;;;9.00;3.80;;;;;;;-0.09;100.00;99796.61;213535;1287;140199;-91
2024/01/05 05:09:02;;;;;;;16.30;6.20;;;;;;;-0.09;100.00;99806.55;214209;1287;138857;-92
2024/01/05 05:14:03;;;;;;;19.10;6.20;;;;;;;-0.12;100.00;99808.75;213830;1288;139854;-91
2024/01/05 05:19:04;;;;;;;15.10;5.10;;;;;;;-0.14;100.00;99816.91;214268;1288;139098;-92
2024/01/05 05:24:04;;;;;;;14.20;5.00;;;;;;;-0.16;100.00;99817.94;213705;1287;140141;-91
2024/01/05 05:29:04;;;;;;;13.10;4.40;;;;;;;-0.17;100.00;99823.13;214445;1288;138875;-91
2024/01/05 05:34:05;;;;;;;13.60;4.50;;;;;;;-0.19;100.00;99820.01;214203;1288;140166;-91
2024/01/05 05:39:06;;;;;;;14.20;4.80;;;;;;;-0.16;100.00;99817.91;215239;1287;138957;-90
2024/01/05 05:44:06;;;;;;;11.00;3.80;;;;;;;-0.12;100.00;99821.66;215428;1288;139575;-92
2024/01/05 05:49:06;;;;;;;10.90;3.90;;;;;;;-0.10;100.00;99831.09;216022;1287;139892;-91
2024/01/05 05:54:07;;;;;;;13.10;3.90;;;;;;;-0.07;100.00;99841.62;215102;1287;139937;-91
2024/01/05 05:59:08;;;;;;;15.90;5.90;;;;;;;-0.07;100.00;99844.42;215396;1287;139833;-91
2024/01/05 06:04:08;;;;;;;13.10;5.30;;;;;;;-0.07;100.00;99852.21;214807;1287;139982;-91
2024/01/05 06:09:11;;;;;;;10.40;4.50;;;;;;;-0.09;100.00;99858.81;215674;1288;139437;-90
2024/01/05 06:14:12;;;;;;;11.50;4.30;;;;;;;-0.07;100.00;99860.05;215954;1287;139831;-90
2024/01/05 06:19:12;;;;;;;14.40;4.90;;;;;;;-0.03;100.00;99864.30;218130;1287;138836;-90
2024/01/05 06:24:15;;;;;;;14.10;4.40;;;;;;;-0.02;100.00;99857.39;216167;1287;139856;-90
2024/01/05 06:29:15;;;;;;;13.10;4.30;;;;;;;-0.02;100.00;99850.70;214252;1290;139287;-89
2024/01/05 06:34:16;;;;;;;11.70;4.00;;;;;;;-0.01;100.00;99851.04;213831;1288;140060;-90
2024/01/05 06:39:16;;;;;;;11.00;4.50;;;;;;;-0.03;100.00;99848.15;214303;1287;140510;-89
2024/01/05 06:44:17;;;;;;;16.80;5.60;;;;;;;-0.05;100.00;99850.49;213893;1290;139796;-89
2024/01/05 06:49:17;;;;;;;12.80;4.90;;;;;;;-0.06;100.00;99840.92;214638;1288;138939;-89
2024/01/05 06:54:18;;;;;;;11.60;4.60;;;;;;;-0.07;100.00;99844.75;213855;1287;139990;-90
2024/01/05 06:59:20;;;;;;;9.90;4.40;;;;;;;-0.07;100.00;99842.71;215219;1287;139288;-90
2024/01/05 07:04:20;;;;;;;9.40;4.10;;;;;;;-0.08;100.00;99838.29;214232;1288;139607;-90
2024/01/05 07:09:21;;;;;;;11.80;4.00;;;;;;;-0.11;100.00;99833.23;214509;1287;139876;-90
2024/01/05 07:14:22;;;;;;;11.00;4.60;;;;;;;-0.10;100.00;99842.52;214367;1287;140338;-91
2024/01/05 07:19:22;;;;;;;13.20;5.40;;;;;;;-0.05;100.00;99850.15;215083;1288;139255;-91
2024/01/05 07:24:23;;;;;;;15.70;5.80;;;;;;;0.00;100.00;99848.62;215128;1287;140138;-90
2024/01/05 07:29:23;;;;;;;16.10;6.90;;;;;;;0.00;100.00;99834.87;215563;1288;138846;-91
2024/01/05 07:34:24;;;;;;;15.70;6.60;;;;;;;-0.02;100.00;99832.92;215035;1288;140109;-90
2024/01/05 07:39:24;;;;;;;12.40;4.30;;;;;;;-0.04;100.00;99827.55;215617;1288;140019;-92
2024/01/05 07:44:25;;;;;;;19.70;6.80;;;;;;;-0.00;100.00;99826.80;214997;1289;139903;-91
2024/01/05 07:49:25;;;;;;;28.90;9.60;;;;;;;-0.04;100.00;99823.80;215545;1287;139294;-92
2024/01/05 07:54:26;;;;;;;25.20;9.10;;;;;;;-0.03;100.00;99833.25;215261;1287;140362;-91
2024/01/05 07:59:26;;;;;;;18.90;8.20;;;;;;;-0.02;100.00;99830.06;217621;1287;138633;-91
2024/01/05 08:04:27;;;;;;;19.30;7.80;;;;;;;0.01;100.00;99819.27;217734;1287;139629;-91
2024/01/05 08:09:27;;;;;;;24.60;9.90;;;;;;;0.01;100.00;99815.71;215958;1288;138622;-91
2024/01/05 08:14:28;;;;;;;23.90;9.20;;;;;;;0.02;100.00;99815.48;214103;1287;139681;-91
2024/01/05 08:19:28;;;;;;;22.50;10.60;;;;;;;0.03;100.00;99821.97;214673;1290;139370;-90
2024/01/05 08:24:29;;;;;;;24.00;10.90;;;;;;;0.00;100.00;99830.77;214281;1288;140044;-91
2024/01/05 08:29:29;;;;;;;16.00;6.60;;;;;;;0.01;100.00;99836.36;214440;1287;139283;-90
2024/01/05 08:34:30;;;;;;;16.60;6.80;;;;;;;0.01;100.00;99843.71;214226;1290;139504;-91
2024/01/05 08:39:31;;;;;;;15.30;6.60;;;;;;;0.08;100.00;99858.14;214592;1290;139159;-91
2024/01/05 08:44:32;;;;;;;17.70;7.70;;;;;;;0.11;100.00;99863.94;214272;1287;140612;-91
2024/01/05 08:49:33;;;;;;;33.50;14.20;;;;;;;0.08;100.00;99857.70;214887;1287;138774;-90
2024/01/05 08:54:34;;;;;;;16.90;8.40;;;;;;;0.09;100.00;99876.20;214311;1287;139931;-92
2024/01/05 08:59:37;;;;;;;30.80;13.90;;;;;;;0.08;100.00;99885.13;215024;1287;139301;-91
2024/01/05 09:04:38;;;;;;;22.80;10.20;;;;;;;0.12;100.00;99891.42;215353;1290;139906;-90
2024/01/05 09:09:38;;;;;;;25.80;12.40;;;;;;;0.18;100.00;99887.72;215809;1287;139591;-91
2024/01/05 09:14:39;;;;;;;30.20;13.40;;;;;;;0.21;100.00;99901.38;215536;1288;139937;-91
2024/01/05 09:19:39;;;;;;;38.60;17.40;;;;;;;0.24;100.00;99913.81;215571;1290;139235;-92
2024/01/05 09:24:39;;;;;;;37.10;16.70;;;;;;;0.26;100.00;99904.30;215547;1288;140062;-90
2024/01/05 09:29:40;;;;;;;37.90;17.40;;;;;;;0.28;100.00;99902.15;215863;1287;138771;-89
2024/01/05 09:34:42;;;;;;;40.90;17.80;;;;;;;0.35;100.00;99908.00;215769;1287;140572;-91
2024/01/05 09:39:43;;;;;;;33.60;15.60;;;;;;;0.39;100.00;99908.34;215858;1288;139731;-91
2024/01/05 09:44:46;;;;;;;40.20;16.40;;;;;;;0.43;100.00;99905.37;217422;1287;140009;-91
2024/01/05 09:49:49;;;;;;;27.40;12.70;;;;;;;0.52;100.00;99904.80;217662;1286;372243;-89
2024/01/05 09:54:50;;;;;;;37.30;15.00;;;;;;;0.61;100.00;99914.33;215345;1287;139259;-92
2024/01/05 09:59:52;;;;;;;32.70;13.80;;;;;;;0.67;100.00;99916.52;214023;1288;164903;-91
2024/01/05 10:04:55;;;;;;;22.30;9.90;;;;;;;0.71;100.00;99914.11;214583;1291;138828;-92
2024/01/05 10:09:57;;;;;;;20.60;9.00;;;;;;;0.73;100.00;99907.38;213971;1287;140365;-92
2024/01/05 10:15:07;;;;;;;18.30;8.50;;;;;;;0.74;100.00;99901.57;214481;1288;138547;-89
2024/01/05 10:20:12;;;;;;;28.10;11.00;;;;;;;0.73;100.00;99897.27;213668;1290;139971;-90
2024/01/05 10:25:16;;;;;;;27.30;11.00;;;;;;;0.74;100.00;99895.08;214513;1287;138906;-89
2024/01/05 10:30:29;;;;;;;21.80;9.90;;;;;;;0.76;100.00;99889.59;214155;1290;139908;-90
2024/01/05 10:35:30;;;;;;;21.70;8.80;;;;;;;0.74;100.00;99892.52;214578;1290;139606;-90
2024/01/05 10:40:32;;;;;;;31.50;12.20;;;;;;;0.77;100.00;99888.36;213648;1291;140322;-90
2024/01/05 10:45:35;;;;;;;22.10;9.30;;;;;;;0.77;100.00;99882.89;214610;1287;138783;-90
2024/01/05 10:50:37;;;;;;;30.20;12.20;;;;;;;0.71;100.00;99875.14;214786;1287;140462;-90
2024/01/05 10:55:38;;;;;;;22.50;9.80;;;;;;;0.72;100.00;99869.52;215643;1290;138911;-90
2024/01/05 11:00:41;;;;;;;24.00;10.70;;;;;;;0.77;100.00;99864.36;215615;1287;140172;-90
2024/01/05 11:05:43;;;;;;;21.30;10.30;;;;;;;0.76;100.00;99857.63;215973;1288;139369;-90
2024/01/05 11:10:56;;;;;;;27.70;11.60;;;;;;;0.69;100.00;99847.33;215663;1290;140630;-88
2024/01/05 11:16:16;;;;;;;28.50;12.30;;;;;;;0.68;100.00;99844.44;216703;1290;107460;-90
2024/01/05 11:21:22;;;;;;;31.20;14.40;;;;;;;0.75;100.00;99847.34;217239;1287;139901;-91
2024/01/05 11:26:39;;;;;;;24.50;9.80;;;;;;;0.80;100.00;99852.95;218445;1287;139184;-90
2024/01/05 11:31:45;;;;;;;22.20;10.00;;;;;;;0.75;100.00;99838.83;217533;1287;139472;-90
2024/01/05 11:36:58;;;;;;;27.90;11.80;;;;;;;0.69;100.00;99825.39;217247;1287;106720;-91
2024/01/05 11:41:59;;;;;;;17.50;8.20;;;;;;;0.68;100.00;99820.61;214989;1289;139728;-90
2024/01/05 11:47:06;;;;;;;17.20;7.70;;;;;;;0.59;100.00;99805.55;214815;1288;143202;-91
2024/01/05 11:52:07;;;;;;;;;;;;;;;0.54;100.00;99805.50;213827;1290;139527;-89
2024/01/05 11:57:08;;;;;;;21.00;8.40;;;;;;;0.49;100.00;99803.11;214334;1288;125530;-91
2024/01/05 12:02:09;;;;;;;16.00;6.80;;;;;;;0.48;100.00;99807.94;214028;1287;139744;-89
2024/01/05 12:07:09;;;;;;;19.60;7.00;;;;;;;0.40;100.00;99820.09;214118;1290;97875;-90
2024/01/05 12:12:17;;;;;;;13.90;6.00;;;;;;;0.28;100.00;99824.52;213822;1288;139780;-89
2024/01/05 12:17:18;;;;;;;14.60;5.20;;;;;;;0.23;100.00;99827.71;214383;1290;139629;-91
2024/01/05 12:22:20;;;;;;;15.70;5.90;;;;;;;0.16;100.00;99821.50;213698;1287;139937;-89
2024/01/05 12:27:20;;;;;;;15.60;5.80;;;;;;;0.18;100.00;99806.45;214288;1287;138542;-88
2024/01/05 12:32:24;;;;;;;19.40;7.20;;;;;;;0.19;100.00;99790.52;214307;1288;139003;-89
2024/01/05 12:37:24;;;;;;;17.80;7.00;;;;;;;0.17;100.00;99782.14;215497;1288;138724;-90
2024/01/05 12:42:25;;;;;;;15.30;6.00;;;;;;;0.12;100.00;99786.53;215698;1287;139609;-89
2024/01/05 12:47:29;;;;;;;43.70;19.20;;;;;;;0.04;100.00;99779.67;215668;1290;138447;-89
2024/01/05 12:52:34;;;;;;;18.30;9.30;;;;;;;0.03;100.00;99785.77;215060;1288;140522;-89
2024/01/05 12:57:35;;;;;;;17.00;7.80;;;;;;;0.01;100.00;99771.16;215375;1288;138513;-88
2024/01/05 13:02:39;;;;;;;13.50;6.50;;;;;;;-0.05;100.00;99765.07;214847;1287;140096;-89
2024/01/05 13:07:39;;;;;;;17.10;8.20;;;;;;;-0.05;100.00;99759.13;215513;1287;138804;-88
2024/01/05 13:12:41;;;;;;;18.40;7.80;;;;;;;-0.03;100.00;99754.60;216923;1287;139657;-88
2024/01/05 13:17:44;;;;;;;22.00;9.80;;;;;;;-0.03;100.00;99760.02;218267;1288;139112;-88
2024/01/05 13:22:45;;;;;;;31.10;12.50;;;;;;;-0.05;100.00;99761.60;215352;1290;139454;-88
2024/01/05 13:27:46;;;;;;;17.40;9.10;;;;;;;-0.08;100.00;99755.54;214324;1287;138881;-88
2024/01/05 13:32:49;;;;;;;16.30;6.90;;;;;;;-0.12;100.00;99750.20;214194;1290;140344;-88
2024/01/05 13:37:50;;;;;;;18.80;8.50;;;;;;;-0.16;100.00;99747.92;214552;1289;138730;-88
2024/01/05 13:42:51;;;;;;;15.90;7.20;;;;;;;-0.14;100.00;99751.10;214139;1288;140235;-87
2024/01/05 13:47:53;;;;;;;20.20;8.80;;;;;;;-0.21;100.00;99754.73;214588;1290;140236;-88
2024/01/05 13:52:53;;;;;;;21.50;9.70;;;;;;;-0.22;100.00;99760.24;214042;1287;141283;-87
2024/01/05 13:57:54;;;;;;;22.30;8.30;;;;;;;-0.28;100.00;99757.75;214521;1290;138984;-87
2024/01/05 14:02:54;;;;;;;20.10;9.20;;;;;;;-0.34;100.00;99746.91;214179;1290;140746;-87
2024/01/05 14:07:55;;;;;;;25.90;10.80;;;;;;;-0.35;100.00;99740.46;214544;1288;138974;-87
2024/01/05 14:12:56;;;;;;;31.10;14.30;;;;;;;-0.34;100.00;99746.22;214178;1290;140047;-88
2024/01/05 14:17:56;;;;;;;38.30;16.20;;;;;;;-0.33;100.00;99751.05;215026;1290;139312;-88
2024/01/05 14:22:59;;;;;;;27.80;13.00;;;;;;;-0.34;100.00;99748.70;215101;1287;140410;-88
2024/01/05 14:28:00;;;;;;;28.50;13.60;;;;;;;-0.34;100.00;99755.41;215483;1290;139379;-88
2024/01/05 14:33:00;;;;;;;26.20;13.50;;;;;;;-0.33;100.00;99765.05;215272;1288;141092;-87
2024/01/05 14:38:01;;;;;;;26.10;11.10;;;;;;;-0.40;100.00;99768.11;215586;1291;139888;-89
2024/01/05 14:43:01;;;;;;;30.40;14.20;;;;;;;-0.44;100.00;99771.48;215475;1288;140083;-90
2024/01/05 14:48:02;;;;;;;24.10;11.30;;;;;;;-0.47;100.00;99761.79;215551;1288;138948;-89
2024/01/05 14:53:02;;;;;;;28.20;12.50;;;;;;;-0.51;100.00;99755.88;215259;1288;140682;-86
2024/01/05 14:58:03;;;;;;;26.70;12.40;;;;;;;-0.54;100.00;99753.38;217630;1288;139565;-88
2024/01/05 15:03:04;;;;;;;31.70;14.30;;;;;;;-0.57;100.00;99771.37;217594;1288;140249;-88
2024/01/05 15:08:05;;;;;;;26.50;12.60;;;;;;;-0.60;100.00;99774.71;215769;1288;139069;-88
2024/01/05 15:13:06;;;;;;;27.80;10.20;;;;;;;-0.64;100.00;99771.55;214707;1288;140945;-88
2024/01/05 15:18:06;;;;;;;28.90;11.60;;;;;;;-0.71;100.00;99771.77;214980;1290;137583;-88
2024/01/05 15:23:07;;;;;;;27.00;10.20;;;;;;;-0.75;100.00;99770.77;214103;1288;140573;-87
2024/01/05 15:28:07;;;;;;;23.60;9.50;;;;;;;-0.85;100.00;99771.23;214644;1290;139757;-88
2024/01/05 15:33:08;;;;;;;25.50;10.90;;;;;;;-0.89;100.00;99770.07;214055;1288;139542;-89
2024/01/05 15:38:09;;;;;;;48.60;17.50;;;;;;;-0.94;100.00;99771.85;214600;1289;139016;-87
2024/01/05 15:43:10;;;;;;;30.50;12.60;;;;;;;-0.97;100.00;99769.80;214472;1288;140332;-89
2024/01/05 15:48:18;;;;;;;49.20;17.10;;;;;;;-1.00;100.00;99761.88;214823;1290;138782;-90
2024/01/05 15:53:18;;;;;;;37.00;14.30;;;;;;;-0.98;100.00;99762.48;214660;1288;140062;-88
2024/01/05 15:58:19;;;;;;;39.30;14.50;;;;;;;-1.02;100.00;99764.16;215735;1290;139336;-89
2024/01/05 16:03:20;;;;;;;32.10;13.90;;;;;;;-1.02;100.00;99766.54;215627;1290;140275;-91
2024/01/05 16:08:21;;;;;;;24.60;11.50;;;;;;;-1.07;100.00;99759.32;216411;1286;139693;-91
2024/01/05 16:13:21;;;;;;;32.20;13.10;;;;;;;-1.10;100.00;99765.80;214889;1288;140124;-91
2024/01/05 16:18:22;;;;;;;22.40;9.70;;;;;;;-1.11;100.00;99770.98;215697;1288;97942;-92
2024/01/05 16:23:25;;;;;;;42.40;14.70;;;;;;;-1.15;100.00;99782.69;215506;1289;139481;-89
2024/01/05 16:28:26;;;;;;;40.80;14.30;;;;;;;-1.13;100.00;99788.04;215993;1288;140082;-92
2024/01/05 16:33:30;;;;;;;36.90;13.80;;;;;;;-1.12;100.00;99779.84;215196;1289;140047;-91
2024/01/05 16:38:31;;;;;;;36.10;12.90;;;;;;;-1.13;100.00;99764.12;215755;1288;139120;-94
2024/01/05 16:43:31;;;;;;;33.60;13.40;;;;;;;-1.13;100.00;99759.48;217351;1288;140087;-92
2024/01/05 16:48:32;;;;;;;38.60;14.80;;;;;;;-1.12;100.00;99757.14;218114;1288;96219;-93
2024/01/05 16:53:32;;;;;;;29.40;13.70;;;;;;;-1.14;100.00;99747.24;214801;1290;140116;-92
2024/01/05 16:58:33;;;;;;;27.30;12.70;;;;;;;-1.16;100.00;99746.34;214195;1292;139762;-92
2024/01/05 17:03:33;;;;;;;34.80;14.80;;;;;;;-1.18;100.00;99745.38;213760;1292;139655;-91
2024/01/05 17:08:34;;;;;;;41.50;15.60;;;;;;;-1.18;100.00;99739.27;214870;1292;139081;-90
2024/01/05 17:13:34;;;;;;;43.20;16.30;;;;;;;-1.18;100.00;99745.30;213742;1292;139927;-92
2024/01/05 17:18:38;;;;;;;45.50;18.20;;;;;;;-1.20;100.00;99752.71;214387;1288;98880;-94
2024/01/05 17:23:40;;;;;;;49.00;19.90;;;;;;;-1.19;100.00;99758.76;214010;1292;140255;-92
2024/01/05 17:28:41;;;;;;;48.10;16.40;;;;;;;-1.19;100.00;99763.55;214350;1289;138849;-94
2024/01/05 17:33:43;;;;;;;44.10;17.90;;;;;;;-1.22;100.00;99763.02;213848;1291;140327;-94
2024/01/05 17:38:44;;;;;;;38.10;15.70;;;;;;;-1.23;100.00;99767.34;214516;1292;139056;-91
2024/01/05 17:43:44;;;;;;;36.30;13.90;;;;;;;-1.23;100.00;99776.52;214143;1292;140478;-94
2024/01/05 17:48:45;;;;;;;33.70;12.10;;;;;;;-1.23;100.00;99766.14;215330;1291;97895;-94
2024/01/05 17:53:46;;;;;;;37.70;16.50;;;;;;;-1.23;100.00;99765.61;214807;1292;140221;-93
2024/01/05 17:58:46;;;;;;;32.50;12.60;;;;;;;-1.23;100.00;99771.27;215170;1293;139111;-93
2024/01/05 18:03:47;;;;;;;33.20;13.10;;;;;;;-1.24;100.00;99767.41;214681;1292;140498;-92
2024/01/05 18:08:47;;;;;;;29.10;9.10;;;;;;;-1.26;100.00;99766.92;215140;1292;139311;-93
2024/01/05 18:13:48;;;;;;;30.20;13.50;;;;;;;-1.26;100.00;99768.60;214759;1289;140714;-94
2024/01/05 18:18:48;;;;;;;39.90;14.10;;;;;;;-1.24;100.00;99770.08;215494;1292;97677;-93
2024/01/05 18:23:49;;;;;;;43.80;14.40;;;;;;;-1.22;100.00;99764.69;216550;1290;140269;-94
2024/01/05 18:28:50;;;;;;;20.70;9.60;;;;;;;-1.20;100.00;99751.16;218053;1288;139410;-93
2024/01/05 18:33:51;;;;;;;33.70;15.70;;;;;;;-1.21;100.00;99751.09;216423;1288;139518;-91
2024/01/05 18:38:52;;;;;;;83.80;33.40;;;;;;;-1.21;100.00;99746.92;214372;1292;139030;-91
2024/01/05 18:43:53;;;;;;;42.00;15.40;;;;;;;-1.21;100.00;99734.23;213745;1289;140337;-91
2024/01/05 18:48:53;;;;;;;44.50;17.80;;;;;;;-1.20;100.00;99726.29;214394;1292;98541;-92
2024/01/05 18:53:54;;;;;;;52.10;20.20;;;;;;;-1.20;100.00;99724.38;213899;1289;139700;-93
2024/01/05 18:58:54;;;;;;;36.80;16.40;;;;;;;-1.19;100.00;99736.45;214503;1291;140080;-92
2024/01/05 19:03:55;;;;;;;44.70;18.90;;;;;;;-1.19;100.00;99740.55;213935;1289;140696;-92
2024/01/05 19:08:55;;;;;;;47.30;17.70;;;;;;;-1.18;100.00;99740.98;214667;1290;139855;-91
2024/01/05 19:13:56;;;;;;;41.80;17.20;;;;;;;-1.16;100.00;99721.11;213772;1288;140481;-90
2024/01/05 19:18:56;;;;;;;33.30;12.60;;;;;;;-1.13;100.00;99716.86;214518;1290;97931;-92
2024/01/05 19:23:57;;;;;;;38.60;16.70;;;;;;;-1.11;100.00;99717.88;213969;1286;140088;-93
2024/01/05 19:28:57;;;;;;;32.30;14.50;;;;;;;-1.10;100.00;99715.27;214832;1288;139177;-92
2024/01/05 19:33:58;;;;;;;41.80;16.70;;;;;;;-1.08;100.00;99707.42;214729;1287;141066;-92
2024/01/05 19:38:58;;;;;;;35.40;15.50;;;;;;;-1.07;100.00;99704.09;216319;1290;138212;-90
2024/01/05 19:43:59;;;;;;;32.20;13.00;;;;;;;-1.05;100.00;99723.05;215061;1288;139456;-94
2024/01/05 19:48:59;;;;;;;32.90;15.60;;;;;;;-1.04;100.00;99730.45;215678;1287;98753;-92
2024/01/05 19:54:00;;;;;;;34.10;13.90;;;;;;;-1.02;100.00;99728.91;214358;1290;140137;-93
2024/01/05 19:59:01;;;;;;;31.40;13.70;;;;;;;-1.01;100.00;99728.17;214990;1289;139196;-92
2024/01/05 20:04:01;;;;;;;63.90;28.80;;;;;;;-1.00;100.00;99730.01;214587;1290;140923;-92
2024/01/05 20:09:05;;;;;;;37.60;16.70;;;;;;;-0.98;100.00;99724.77;217703;1289;139413;-91
2024/01/05 20:14:06;;;;;;;41.50;16.70;;;;;;;-0.96;100.00;99731.83;217350;1289;140487;-92
2024/01/05 20:19:07;;;;;;;38.30;14.50;;;;;;;-0.91;100.00;99743.45;214332;1289;105302;-92
2024/01/05 20:24:08;;;;;;;67.90;22.70;;;;;;;-0.87;100.00;99747.52;213640;1293;140519;-92
2024/01/05 20:29:09;;;;;;;98.20;33.90;;;;;;;-0.86;100.00;99745.14;213972;1293;139233;-91
2024/01/05 20:34:11;;;;;;;100.80;42.30;;;;;;;-0.88;100.00;99733.89;213458;1293;140289;-93
2024/01/05 20:39:12;;;;;;;44.40;17.20;;;;;;;-0.89;100.00;99734.05;214036;1293;139232;-92
2024/01/05 20:44:13;;;;;;;29.90;12.10;;;;;;;-0.88;100.00;99733.55;213590;1293;140994;-89
2024/01/05 20:49:15;;;;;;;35.40;15.30;;;;;;;-0.90;100.00;99734.48;214247;1293;97926;-93
2024/01/05 20:54:16;;;;;;;30.00;14.00;;;;;;;-0.90;100.00;99743.64;214115;1287;139665;-92
2024/01/05 20:59:17;;;;;;;37.00;14.50;;;;;;;-0.89;100.00;99748.35;214896;1290;139898;-92
2024/01/05 21:04:19;;;;;;;47.20;22.00;;;;;;;-0.87;100.00;99754.73;214364;1287;140328;-92
2024/01/05 21:09:20;;;;;;;38.00;13.60;;;;;;;-0.84;100.00;99761.43;214837;1291;139335;-92
2024/01/05 21:14:20;;;;;;;30.70;14.20;;;;;;;-0.83;100.00;99748.16;215026;1287;139683;-93
2024/01/05 21:19:21;;;;;;;26.40;12.00;;;;;;;-0.83;100.00;99741.35;215586;1288;139067;-92
2024/01/05 21:24:21;;;;;;;33.40;14.80;;;;;;;-0.82;100.00;99740.52;215871;1288;140874;-95
2024/01/05 21:29:22;;;;;;;30.20;13.10;;;;;;;-0.81;100.00;99746.38;215679;1288;139109;-92
2024/01/05 21:34:22;;;;;;;36.50;15.60;;;;;;;-0.78;100.00;99751.44;214875;1287;140447;-92
2024/01/05 21:39:23;;;;;;;38.80;14.30;;;;;;;-0.79;100.00;99746.79;215511;1288;139239;-93
2024/01/05 21:44:23;;;;;;;34.60;14.00;;;;;;;-0.77;100.00;99751.74;215148;1287;141183;-89
2024/01/05 21:49:28;;;;;;;32.50;13.50;;;;;;;-0.78;100.00;99751.30;217021;1287;140866;-89
2024/01/05 21:54:28;;;;;;;34.50;14.60;;;;;;;-0.78;100.00;99744.44;217617;1287;140416;-89
2024/01/05 21:59:32;;;;;;;31.00;13.60;;;;;;;-0.78;100.00;99748.89;215777;1287;139537;-88
2024/01/05 22:04:33;;;;;;;26.00;12.30;;;;;;;-0.77;100.00;99753.72;213799;1290;140527;-89
2024/01/05 22:09:34;;;;;;;46.80;18.20;;;;;;;-0.77;100.00;99751.94;214556;1288;139303;-88
2024/01/05 22:14:35;;;;;;;49.20;18.30;;;;;;;-0.81;100.00;99744.81;214036;1288;139815;-92
2024/01/05 22:19:35;;;;;;;29.10;13.20;;;;;;;-0.84;100.00;99746.67;214364;1287;139121;-89
2024/01/05 22:24:35;;;;;;;48.80;19.40;;;;;;;-0.90;100.00;99744.29;213836;1287;139765;-90
2024/01/05 22:29:36;;;;;;;33.90;15.30;;;;;;;-0.93;100.00;99739.19;214332;1287;139717;-89
2024/01/05 22:34:38;;;;;;;31.20;15.60;;;;;;;-0.95;100.00;99720.64;213882;1288;140162;-83